createdAt,value
2019-02-16T00:48:52.655Z,34.40
2019-02-16T00:51:33.358Z,38.13
2019-02-16T00:56:53.641Z,33.70
2019-02-16T00:59:25.279Z,30.13
2019-02-16T01:01:54.143Z,35.43
2019-02-16T01:07:40.234Z,32.87
2019-02-16T01:10:18.159Z,31.47
2019-02-16T01:12:53.176Z,30.17
2019-02-16T01:18:09.368Z,31.50
2019-02-16T01:20:40.738Z,31.57
2019-02-16T01:23:09.017Z,30.40
2019-02-16T01:29:36.454Z,33.97
2019-02-16T01:55:32.949Z,35.53
2019-02-16T01:58:18.660Z,34.40
2019-02-16T02:00:47.675Z,34.80
2019-02-16T02:03:16.446Z,35.83
2019-02-16T02:05:45.413Z,38.23
2019-02-16T02:08:14.227Z,43.53
2019-02-16T02:10:44.227Z,40.23
2019-02-16T02:13:20.687Z,36.57
2019-02-16T02:18:43.616Z,38.33
2019-02-16T02:21:12.236Z,34.37
2019-02-16T02:23:43.456Z,36.30
2019-02-16T02:26:12.041Z,38.67
2019-02-16T02:28:40.662Z,34.87
2019-02-16T02:31:09.312Z,35.80
2019-02-16T02:33:37.926Z,36.03
2019-02-16T02:36:06.541Z,35.70
2019-02-16T02:38:35.141Z,38.17
2019-02-16T02:41:03.712Z,36.53
2019-02-16T02:43:32.378Z,37.37
2019-02-16T02:46:00.972Z,39.20
2019-02-16T02:48:29.603Z,34.43
2019-02-16T02:50:58.272Z,39.67
2019-02-16T02:53:31.321Z,38.27
2019-02-16T02:55:57.281Z,40.80
2019-02-16T02:58:25.992Z,42.93
2019-02-16T03:00:54.655Z,42.17
2019-02-16T03:03:23.342Z,43.87
2019-02-16T03:05:52.015Z,39.97
2019-02-16T03:11:31.016Z,40.43
2019-02-16T03:13:59.652Z,40.53
2019-02-16T03:16:28.332Z,37.90
2019-02-16T03:18:58.885Z,38.30
2019-02-16T03:21:30.974Z,40.73
2019-02-16T03:23:59.772Z,38.43
2019-02-16T03:26:43.542Z,36.60
2019-02-16T03:29:17.699Z,35.30
2019-02-16T03:32:14.839Z,38.30
2019-02-16T03:34:46.527Z,39.43
2019-02-16T03:37:36.108Z,33.50
2019-02-16T03:40:07.064Z,39.93
2019-02-16T03:42:35.636Z,37.17
2019-02-16T03:45:06.035Z,38.30
2019-02-16T03:47:34.723Z,35.30
2019-02-16T03:50:04.094Z,40.23
2019-02-16T03:52:32.816Z,37.27
2019-02-16T03:55:01.616Z,33.83
2019-02-16T03:57:30.222Z,35.60
2019-02-16T03:59:58.826Z,36.43
2019-02-16T04:02:27.587Z,36.30
2019-02-16T04:04:56.232Z,36.17
2019-02-16T04:07:24.954Z,40.83
2019-02-16T04:09:53.624Z,39.37
2019-02-16T04:12:22.315Z,37.27
2019-02-16T04:14:50.978Z,35.23
2019-02-16T04:17:21.295Z,38.20
2019-02-16T04:19:49.982Z,39.17
2019-02-16T04:22:24.542Z,39.47
2019-02-16T04:24:49.077Z,38.07
2019-02-16T04:27:17.834Z,42.10
2019-02-16T04:29:46.431Z,41.63
2019-02-16T04:32:15.147Z,37.10
2019-02-16T04:34:43.726Z,39.70
2019-02-16T04:37:12.357Z,38.97
2019-02-16T04:39:40.925Z,40.03
2019-02-16T04:42:09.622Z,38.87
2019-02-16T04:44:38.290Z,38.93
2019-02-16T04:47:07.055Z,41.77
2019-02-16T04:49:35.741Z,40.43
2019-02-16T04:52:04.493Z,41.40
2019-02-16T04:54:33.179Z,37.53
2019-02-16T04:57:01.872Z,40.33
2019-02-16T04:59:30.545Z,36.33
2019-02-16T05:01:59.266Z,40.07
2019-02-16T05:04:27.893Z,39.57
2019-02-16T05:06:56.483Z,36.57
2019-02-16T05:09:25.057Z,39.37
2019-02-16T05:11:53.611Z,39.83
2019-02-16T05:14:22.195Z,38.30
2019-02-16T05:16:50.770Z,36.53
2019-02-16T05:19:19.469Z,39.43
2019-02-16T05:21:48.114Z,38.87
2019-02-16T05:24:16.733Z,37.27
2019-02-16T05:26:45.353Z,35.13
2019-02-16T05:29:13.948Z,41.03
2019-02-16T05:31:42.687Z,36.20
2019-02-16T05:34:11.482Z,38.70
2019-02-16T05:36:40.198Z,40.00
2019-02-16T05:39:08.815Z,38.83
2019-02-16T05:41:37.520Z,42.57
2019-02-16T05:44:06.203Z,39.30
2019-02-16T05:46:34.845Z,39.33
2019-02-16T05:49:03.389Z,38.87
2019-02-16T05:51:31.995Z,38.30
2019-02-16T05:54:02.551Z,35.67
2019-02-16T05:56:30.984Z,39.63
2019-02-16T05:58:59.597Z,37.47
2019-02-16T06:01:28.241Z,33.93
2019-02-16T06:03:56.817Z,36.53
2019-02-16T06:06:25.427Z,37.30
2019-02-16T06:08:54.005Z,39.53
2019-02-16T06:11:22.600Z,43.90
2019-02-16T06:13:51.191Z,47.07
2019-02-16T06:16:19.784Z,45.77
2019-02-16T06:18:48.378Z,37.60
2019-02-16T06:21:16.991Z,44.17
2019-02-16T06:23:45.571Z,48.30
2019-02-16T06:26:14.162Z,41.90
2019-02-16T06:28:42.856Z,41.67
2019-02-16T06:31:11.427Z,47.87
2019-02-16T06:33:39.997Z,40.67
2019-02-16T06:36:10.233Z,43.10
2019-02-16T06:38:38.811Z,42.10
2019-02-16T06:41:09.240Z,55.83
2019-02-16T06:43:38.159Z,44.50
2019-02-16T06:46:06.898Z,46.30
2019-02-16T06:48:35.572Z,44.00
2019-02-16T06:51:04.463Z,50.93
2019-02-16T06:53:33.266Z,44.30
2019-02-16T06:56:03.636Z,42.47
2019-02-16T06:58:32.492Z,44.47
2019-02-16T07:01:01.122Z,40.33
2019-02-16T07:03:30.005Z,44.13
2019-02-16T07:05:58.730Z,43.67
2019-02-16T07:08:27.473Z,41.73
2019-02-16T07:10:56.100Z,43.30
2019-02-16T07:13:24.920Z,38.80
2019-02-16T07:16:11.644Z,39.30
2019-02-16T07:18:42.624Z,41.53
2019-02-16T07:21:11.381Z,42.03
2019-02-16T07:23:40.441Z,45.80
2019-02-16T07:26:09.239Z,53.10
2019-02-16T07:28:37.982Z,45.70
2019-02-16T07:31:06.724Z,45.53
2019-02-16T07:33:35.389Z,42.17
2019-02-16T07:36:03.982Z,53.10
2019-02-16T07:38:32.569Z,47.80
2019-02-16T07:41:28.103Z,43.73
2019-02-16T07:43:58.334Z,44.73
2019-02-16T07:46:28.616Z,41.97
2019-02-16T07:48:58.938Z,37.37
2019-02-16T07:51:41.273Z,37.63
2019-02-16T07:54:14.127Z,35.43
2019-02-16T07:56:44.323Z,41.23
2019-02-16T07:59:30.968Z,42.70
2019-02-16T08:02:01.199Z,38.60
2019-02-16T08:04:31.417Z,40.43
2019-02-16T08:07:01.887Z,42.97
2019-02-16T08:09:36.756Z,39.87
2019-02-16T08:12:12.853Z,39.40
2019-02-16T08:14:51.837Z,38.50
2019-02-16T08:17:28.606Z,43.27
2019-02-16T08:20:16.570Z,42.53
2019-02-16T08:22:49.420Z,38.67
2019-02-16T08:25:25.347Z,37.23
2019-02-16T08:28:01.567Z,43.83
2019-02-16T08:30:37.652Z,39.33
2019-02-16T08:33:10.829Z,39.97
2019-02-16T08:35:46.710Z,47.43
2019-02-16T08:38:33.434Z,41.40
2019-02-16T08:41:18.679Z,42.87
2019-02-16T08:43:54.783Z,39.17
2019-02-16T08:46:41.381Z,43.40
2019-02-16T08:49:17.516Z,44.13
2019-02-16T08:52:06.060Z,41.07
2019-02-16T08:57:56.364Z,40.47
2019-02-16T09:00:41.831Z,42.00
2019-02-16T09:03:20.863Z,43.17
2019-02-16T09:06:07.879Z,45.43
2019-02-16T09:08:40.818Z,46.03
2019-02-16T09:11:11.141Z,43.57
2019-02-16T09:13:47.090Z,44.70
2019-02-16T09:16:18.510Z,40.20
2019-02-16T09:19:03.950Z,41.70
2019-02-16T09:21:34.260Z,40.93
2019-02-16T09:24:23.098Z,48.00
2019-02-16T09:26:55.994Z,43.00
2019-02-16T09:29:38.296Z,48.83
2019-02-16T09:32:14.455Z,47.13
2019-02-16T09:34:44.767Z,42.30
2019-02-16T09:37:14.990Z,51.10
2019-02-16T09:40:03.622Z,47.13
2019-02-16T09:42:37.288Z,47.47
2019-02-16T09:45:09.241Z,45.50
2019-02-16T09:47:39.478Z,41.97
2019-02-16T09:50:09.914Z,40.30
2019-02-16T09:52:46.379Z,39.53
2019-02-16T09:55:25.762Z,38.30
2019-02-16T09:57:56.087Z,40.27
2019-02-16T10:00:29.184Z,41.77
2019-02-16T10:02:59.434Z,39.80
2019-02-16T10:05:38.784Z,40.13
2019-02-16T10:08:27.440Z,44.27
2019-02-16T10:11:09.716Z,43.63
2019-02-16T10:13:51.775Z,40.90
2019-02-16T10:16:22.076Z,45.10
2019-02-16T10:18:52.628Z,39.57
2019-02-16T10:21:28.998Z,40.93
2019-02-16T10:24:17.348Z,41.33
2019-02-16T10:26:51.809Z,44.67
2019-02-16T10:29:26.472Z,52.73
2019-02-16T10:32:15.745Z,50.73
2019-02-16T10:34:48.618Z,48.57
2019-02-16T10:37:27.900Z,48.00
2019-02-16T10:40:00.927Z,52.87
2019-02-16T10:42:31.364Z,49.20
2019-02-16T10:45:16.984Z,42.30
2019-02-16T10:50:34.128Z,46.30
2019-02-16T10:53:20.952Z,41.73
2019-02-16T10:55:57.098Z,49.57
2019-02-16T10:58:39.942Z,41.13
2019-02-16T11:01:15.932Z,42.40
2019-02-16T11:03:46.210Z,43.53
2019-02-16T11:06:31.694Z,46.10
2019-02-16T11:09:04.794Z,42.37
2019-02-16T11:11:51.230Z,44.00
2019-02-16T11:14:27.411Z,39.50
2019-02-16T11:16:57.621Z,36.97
2019-02-16T11:19:30.668Z,36.80
2019-02-16T11:22:01.110Z,36.17
2019-02-16T11:24:47.728Z,38.97
2019-02-16T11:27:18.053Z,35.20
2019-02-16T11:30:06.801Z,37.27
2019-02-16T11:32:42.736Z,34.83
2019-02-16T11:35:21.769Z,39.90
2019-02-16T11:38:07.116Z,34.53
2019-02-16T11:40:43.324Z,34.10
2019-02-16T11:43:16.390Z,42.17
2019-02-16T11:46:04.864Z,32.43
2019-02-16T11:48:37.974Z,33.47
2019-02-16T11:54:13.619Z,36.50
2019-02-16T11:56:46.562Z,34.43
2019-02-16T11:59:19.668Z,36.53
2019-02-16T12:01:55.615Z,37.00
2019-02-16T12:04:25.848Z,35.90
2019-02-16T12:07:08.165Z,35.27
2019-02-16T12:09:40.822Z,34.57
2019-02-16T12:12:17.060Z,34.87
2019-02-16T12:15:03.934Z,37.00
2019-02-16T12:17:49.255Z,38.43
2019-02-16T12:20:33.406Z,37.40
2019-02-16T12:23:09.254Z,36.27
2019-02-16T12:25:42.272Z,32.17
2019-02-16T12:28:28.505Z,34.17
2019-02-16T12:31:10.492Z,33.60
2019-02-16T12:33:57.162Z,30.50
2019-02-16T12:36:27.467Z,36.57
2019-02-16T12:39:09.997Z,34.30
2019-02-16T12:41:49.386Z,36.00
2019-02-16T12:44:34.580Z,31.87
2019-02-16T12:47:04.865Z,34.10
2019-02-16T12:49:44.032Z,36.27
2019-02-16T12:52:23.501Z,44.73
2019-02-16T12:54:59.900Z,35.50
2019-02-16T12:57:39.384Z,32.90
2019-02-16T13:00:17.773Z,39.37
2019-02-16T13:02:56.697Z,32.40
2019-02-16T13:05:35.746Z,35.17
2019-02-16T13:08:10.107Z,38.53
2019-02-16T13:10:40.316Z,38.70
2019-02-16T13:13:26.828Z,38.73
2019-02-16T13:16:15.187Z,33.33
2019-02-16T13:19:01.798Z,34.63
2019-02-16T13:21:32.075Z,34.57
2019-02-16T13:24:11.228Z,35.43
2019-02-16T13:26:47.364Z,37.70
2019-02-16T13:29:20.414Z,32.83
2019-02-16T13:31:56.714Z,33.40
2019-02-16T13:34:44.067Z,37.23
2019-02-16T13:37:32.216Z,38.07
2019-02-16T13:40:05.144Z,34.30
2019-02-16T13:42:41.139Z,33.37
2019-02-16T13:45:27.046Z,32.30
2019-02-16T13:47:57.317Z,33.63
2019-02-16T13:50:33.437Z,35.40
2019-02-16T13:53:06.292Z,35.73
2019-02-16T13:55:45.588Z,34.80
2019-02-16T13:58:21.744Z,38.27
2019-02-16T14:00:54.816Z,38.97
2019-02-16T14:06:13.104Z,37.87
2019-02-16T14:08:43.312Z,33.60
2019-02-16T14:11:19.744Z,36.33
2019-02-16T14:13:52.805Z,32.43
2019-02-16T14:16:35.092Z,35.33
2019-02-16T14:19:03.741Z,42.17
2019-02-16T14:21:32.300Z,34.70
2019-02-16T14:24:00.886Z,32.57
2019-02-16T14:26:29.497Z,33.83
2019-02-16T14:28:58.141Z,36.07
2019-02-16T14:31:28.709Z,35.83
2019-02-16T14:33:57.303Z,35.57
2019-02-16T14:36:25.908Z,33.40
2019-02-16T14:38:56.140Z,32.57
2019-02-16T14:41:24.713Z,35.50
2019-02-16T14:43:53.369Z,35.03
2019-02-16T14:46:22.093Z,35.07
2019-02-16T14:48:50.652Z,31.03
2019-02-16T14:51:19.383Z,32.00
2019-02-16T14:53:52.188Z,28.77
2019-02-16T14:56:23.626Z,31.17
2019-02-16T14:58:55.134Z,33.33
2019-02-16T15:01:23.724Z,35.40
2019-02-16T15:03:52.273Z,36.07
2019-02-16T15:06:20.999Z,37.13
2019-02-16T15:08:52.528Z,36.30
2019-02-16T15:11:21.139Z,36.43
2019-02-16T15:13:49.865Z,39.97
2019-02-16T15:16:18.544Z,35.57
2019-02-16T15:18:49.621Z,35.10
2019-02-16T15:21:18.105Z,32.10
2019-02-16T15:23:46.754Z,36.87
2019-02-16T15:26:15.360Z,34.43
2019-02-16T15:28:43.937Z,31.77
2019-02-16T15:31:12.676Z,31.03
2019-02-16T15:33:41.368Z,33.17
2019-02-16T15:36:12.969Z,34.80
2019-02-16T15:38:43.287Z,31.43
2019-02-16T15:41:11.903Z,29.53
2019-02-16T15:43:43.715Z,36.37
2019-02-16T15:46:15.198Z,30.33
2019-02-16T15:48:46.315Z,31.43
2019-02-16T15:51:15.097Z,31.00
2019-02-16T15:53:43.727Z,33.77
2019-02-16T15:56:12.398Z,28.90
2019-02-16T15:58:41.007Z,30.37
2019-02-16T16:01:09.841Z,30.83
2019-02-16T16:03:38.669Z,34.63
2019-02-16T16:06:07.453Z,32.67
2019-02-16T16:08:46.887Z,30.10
2019-02-16T16:11:35.307Z,29.20
2019-02-16T16:14:06.628Z,31.80
2019-02-16T16:16:39.861Z,30.77
2019-02-16T16:19:18.774Z,33.57
2019-02-16T16:21:56.161Z,35.07
2019-02-16T16:24:32.633Z,34.43
2019-02-16T16:27:05.594Z,29.13
2019-02-16T16:29:41.503Z,36.07
2019-02-16T16:32:14.607Z,33.30
2019-02-16T16:34:44.843Z,31.20
2019-02-16T16:37:15.184Z,35.80
2019-02-16T16:39:45.396Z,38.17
2019-02-16T16:42:24.776Z,33.70
2019-02-16T16:45:11.320Z,35.50
2019-02-16T16:47:47.622Z,33.50
2019-02-16T16:50:34.167Z,36.60
2019-02-16T16:53:04.470Z,33.00
2019-02-16T16:55:37.552Z,36.40
2019-02-16T16:58:23.161Z,37.37
2019-02-16T17:00:59.107Z,34.17
2019-02-16T17:03:42.955Z,42.03
2019-02-16T17:06:13.220Z,38.67
2019-02-16T17:08:48.947Z,35.20
2019-02-16T17:11:24.782Z,33.83
2019-02-16T17:14:07.286Z,35.23
2019-02-16T17:16:37.559Z,37.73
2019-02-16T17:19:07.977Z,37.70
2019-02-16T17:21:41.182Z,37.40
2019-02-16T17:24:11.423Z,41.47
2019-02-16T17:26:56.780Z,42.17
2019-02-16T17:29:41.989Z,39.10
2019-02-16T17:32:21.127Z,35.63
2019-02-16T17:38:39.167Z,36.50
2019-02-16T17:41:21.353Z,38.57
2019-02-16T17:47:00.125Z,41.47
2019-02-16T17:49:40.898Z,37.03
2019-02-16T17:56:05.415Z,52.13
2019-02-16T17:58:43.058Z,53.23
2019-02-16T18:01:25.343Z,39.87
2019-02-16T18:04:04.678Z,42.43
2019-02-16T18:06:44.282Z,47.13
2019-02-16T18:09:34.157Z,47.90
2019-02-16T18:12:16.707Z,42.27
2019-02-16T18:15:12.524Z,43.17
2019-02-16T18:17:46.072Z,40.37
2019-02-16T18:20:31.885Z,41.83
2019-02-16T18:23:02.257Z,43.47
2019-02-16T18:25:38.475Z,42.43
2019-02-16T18:28:14.378Z,41.37
2019-02-16T18:30:53.975Z,42.27
2019-02-16T18:33:30.277Z,45.30
2019-02-16T18:36:06.584Z,41.77
2019-02-16T18:38:49.192Z,46.93
2019-02-16T18:41:33.606Z,45.43
2019-02-16T18:44:22.248Z,48.27
2019-02-16T18:47:04.353Z,45.67
2019-02-16T18:50:16.686Z,43.37
2019-02-16T18:59:41.265Z,43.17
2019-02-16T19:02:43.454Z,41.00
2019-02-16T19:05:41.250Z,45.93
2019-02-16T19:08:53.095Z,46.93
2019-02-16T19:17:26.309Z,46.87
2019-02-16T19:20:07.385Z,46.07
2019-02-16T19:33:20.511Z,50.30
2019-02-16T19:35:57.227Z,47.77
2019-02-16T19:38:39.876Z,47.93
2019-02-16T19:41:16.396Z,47.57
2019-02-16T19:44:14.139Z,44.37
2019-02-16T19:46:57.562Z,45.60
2019-02-16T19:49:44.659Z,45.93
2019-02-16T19:52:21.093Z,49.13
2019-02-16T19:54:54.335Z,47.63
2019-02-16T19:57:36.619Z,47.53
2019-02-16T20:00:24.427Z,49.27
2019-02-16T20:06:00.481Z,52.60
2019-02-16T20:08:33.733Z,45.07
2019-02-16T20:11:22.476Z,48.27
2019-02-16T20:14:13.401Z,43.00
2019-02-16T20:17:01.669Z,42.33
2019-02-16T20:19:49.094Z,45.07
2019-02-16T20:22:36.557Z,47.07
2019-02-16T20:25:25.005Z,43.77
2019-02-16T20:27:55.223Z,44.97
2019-02-16T20:30:46.388Z,45.17
2019-02-16T20:33:35.132Z,51.97
2019-02-16T20:36:05.646Z,51.10
2019-02-16T20:39:02.139Z,50.03
2019-02-16T20:41:48.745Z,51.17
2019-02-16T20:47:14.763Z,53.97
2019-02-16T20:50:01.399Z,51.93
2019-02-16T20:52:37.913Z,51.87
2019-02-16T20:55:14.243Z,48.90
2019-02-16T20:58:01.087Z,52.63
2019-02-16T21:00:31.599Z,49.87
2019-02-16T21:03:07.641Z,54.83
2019-02-16T21:05:40.635Z,57.30
2019-02-16T21:08:29.027Z,60.90
2019-02-16T21:11:15.987Z,56.43
2019-02-16T21:13:58.549Z,51.83
2019-02-16T21:16:36.184Z,54.53
2019-02-16T21:19:19.941Z,56.97
2019-02-16T21:22:08.737Z,52.63
2019-02-16T21:24:47.608Z,51.93
2019-02-16T21:27:18.123Z,52.47
2019-02-16T21:29:54.246Z,50.10
